Μυτιλήνη, Ελλάδα

05:22 AM EEST on Αύγουστος 21, 2014 (GMT +0300)
Odysseas Elytis | Change Station
CLOSE
Current Station
Airport
Location: Mytilini,
Elevation: 16 ft
Nearby Weather Stations

Elev 16 ft 39.05 °N, 26.60 °E | Updated 32 minutes ago

Clear
Αίθριος
73 ° F
Feels Like 73 ° F
N
0
Ανεμος Μεταβλητός Ανεμος from Βόρειος

Σήμερα
High -- | Low -- ° F
--% Chance of Precip.
Yesterday
High -- | Low -- ° F
Precip. -- in
6:32 AM 8:00 PM
Μηνίσκος, 17% visible
Ατμοσφαιρική Πίεση 29.98 in
Ορατότητα -9999.0 Μίλια
Σύννεφα
Σημείο Δρόσου 59 ° F
Υγρασία 61%
Rainfall 0.00 in
Snow Depth Not available.
Υπεριώδης ακτινοβολία (UV) Not available.
Pollen Not available.
Air Quality Not available.
Flu Activity Not available.
METAR LGMT 210150Z 00000KT CAVOK 23/15 Q1015

More Conditions Fewer Conditions

Ατμοσφαιρική Πίεση 29.98 in
Ορατότητα -9999.0 Μίλια
Σύννεφα
Σημείο Δρόσου 59 ° F
Υγρασία 61%
Rainfall 0.00 in
Snow Depth Not available.
Υπεριώδης ακτινοβολία (UV) Not available.
Pollen Not available.
Air Quality Not available.
Flu Activity Not available.
METAR LGMT 210150Z 00000KT CAVOK 23/15 Q1015

More Conditions Fewer Conditions

10-Day Weather Forecast

Almanac

Αστρονομία

Aug. 21, 2014 Rise Set
Actual Time 6:32 AM EEST 8:00 PM EEST
Civil Twilight 6:03 AM EEST 8:28 PM EEST
Nautical Twilight 5:30 AM EEST 9:02 PM EEST
Astronomical Twilight 4:54 AM EEST 9:38 PM EEST
Moon 2:46 AM EEST 5:15 PM EEST
Length Of Visible Light 14h 24m
Διάρκεια ημέρας
13h 28m
Tomorrow will be 2m 18s shorter.
Μηνίσκος, 17% of the Moon is Illuminated
Aug 20
Μηνίσκος
Aug 25
New
Sep 2
Πρώτο τέταρτο
Sep 8
Πανσέληνος
Sep 15
Τελευταίο τέταρτο

Yesterday's Extremes

Country Highs Country Lows

Community

WunderPhotos

Upload Photos

1,745,851 photos uploaded!

WunderBlogs® & News

By Dr. Jeff Masters
Director of Meteorology, Weather Underground
By Kari Strenfel
Meteorologist, Weather Underground
By Christopher C. Burt
Weather Historian, Weather Underground
August 20, 2014
August 20, 2014
August 20, 2014

Nearby

Snow Depth

Not available.

Earthquake Activity

City Distance Mag. Time & Date
No recent earthquake activity has been reported nearby.
Minimum magnitude displayed is 2.5.

Coastal Water Temperatures

Τοποθεσία Θερμοκρασία
No Stations Reporting

Nearby Weather Stations